Time;durP1;ratioP1;P1;durP2;ratioP2;P2;SDS_P1;SDS_P2;PMS_P1;PMS_P2;Temp;Humidity;BMP_temperature;BMP_pressure;BME280_temperature;BME280_humidity;BME280_pressure;Samples;Min_cycle;Max_cycle;Signal;HPM_P1;HPM_P2
2024/04/23 00:00:00;;;;;;;0.70;0.50;;;;;;;;;;5382097;26;20028;-84
2024/04/23 00:02:32;;;;;;;1.30;0.60;;;;;;;;;;5381227;26;20029;-84
2024/04/23 00:05:02;;;;;;;0.47;0.30;;;;;;;;;;5383112;26;20025;-85
2024/04/23 00:07:33;;;;;;;0.98;0.40;;;;;;;;;;5382610;26;20020;-82
2024/04/23 00:10:03;;;;;;;0.90;0.43;;;;;;;;;;5380846;26;20458;-84
2024/04/23 00:12:34;;;;;;;1.83;0.40;;;;;;;;;;5381046;26;20020;-84
2024/04/23 00:15:04;;;;;;;2.50;0.35;;;;;;;;;;5382184;26;20016;-86
2024/04/23 00:17:34;;;;;;;1.20;0.70;;;;;;;;;;5380747;26;20036;-83
2024/04/23 00:20:06;;;;;;;0.85;0.30;;;;;;;;;;5381239;26;20028;-84
2024/04/23 00:22:36;;;;;;;0.70;0.32;;;;;;;;;;5380856;26;20462;-84
2024/04/23 00:25:06;;;;;;;0.82;0.50;;;;;;;;;;5383196;26;20020;-83
2024/04/23 00:27:36;;;;;;;1.15;0.50;;;;;;;;;;5380466;26;20020;-83
2024/04/23 00:30:07;;;;;;;0.70;0.40;;;;;;;;;;5381019;26;20037;-85
2024/04/23 00:32:37;;;;;;;1.92;0.63;;;;;;;;;;5378336;26;20028;-83
2024/04/23 00:35:09;;;;;;;1.20;0.40;;;;;;;;;;5381893;26;20016;-84
2024/04/23 00:37:39;;;;;;;1.10;0.50;;;;;;;;;;5381621;26;20371;-83
2024/04/23 00:40:10;;;;;;;0.73;0.45;;;;;;;;;;5349861;26;20040;-84
2024/04/23 00:42:40;;;;;;;1.92;0.40;;;;;;;;;;5379510;26;20020;-84
2024/04/23 00:45:13;;;;;;;1.80;0.63;;;;;;;;;;5381838;26;20024;-84
2024/04/23 00:47:44;;;;;;;1.00;0.32;;;;;;;;;;5388238;26;20009;-84
2024/04/23 00:50:16;;;;;;;2.35;0.60;;;;;;;;;;5404210;26;19999;-84
2024/04/23 00:52:47;;;;;;;1.35;0.55;;;;;;;;;;5403492;26;19996;-83
2024/04/23 00:55:17;;;;;;;0.95;0.50;;;;;;;;;;5404643;26;20019;-80
2024/04/23 00:57:48;;;;;;;0.90;0.40;;;;;;;;;;5404233;26;20000;-82
2024/04/23 01:00:18;;;;;;;1.48;0.50;;;;;;;;;;5404155;26;20003;-81
2024/04/23 01:02:50;;;;;;;2.20;0.60;;;;;;;;;;5404043;26;20003;-82
2024/04/23 01:05:20;;;;;;;1.63;0.63;;;;;;;;;;5381594;26;20029;-82
2024/04/23 01:07:50;;;;;;;1.67;0.40;;;;;;;;;;5381298;26;20351;-83
2024/04/23 01:10:20;;;;;;;1.58;0.40;;;;;;;;;;5379800;26;20020;-83
2024/04/23 01:12:50;;;;;;;0.82;0.43;;;;;;;;;;5379570;26;20020;-82
2024/04/23 01:15:23;;;;;;;0.68;0.40;;;;;;;;;;5384413;26;20498;-81
2024/04/23 01:18:00;;;;;;;1.00;0.30;;;;;;;;;;5384196;26;20016;-82
2024/04/23 01:20:32;;;;;;;0.80;0.30;;;;;;;;;;5349200;26;20020;-82
2024/04/23 01:23:16;;;;;;;1.70;0.60;;;;;;;;;;5349405;26;20475;-82
2024/04/23 01:25:49;;;;;;;0.52;0.20;;;;;;;;;;5349209;26;20034;-83
2024/04/23 01:28:19;;;;;;;0.70;0.45;;;;;;;;;;5347710;26;20029;-82
2024/04/23 01:30:49;;;;;;;2.97;0.65;;;;;;;;;;5352982;26;20024;-83
2024/04/23 01:33:19;;;;;;;3.92;0.40;;;;;;;;;;5383927;26;20479;-83
2024/04/23 01:35:51;;;;;;;3.42;0.43;;;;;;;;;;5382839;26;20359;-84
2024/04/23 01:38:21;;;;;;;0.60;0.30;;;;;;;;;;5383958;26;20020;-85
2024/04/23 01:40:51;;;;;;;0.30;0.20;;;;;;;;;;5384712;26;20032;-83
2024/04/23 01:43:22;;;;;;;2.38;0.55;;;;;;;;;;5384611;26;20454;-83
2024/04/23 01:45:53;;;;;;;0.80;0.30;;;;;;;;;;5383714;26;20020;-84
2024/04/23 01:48:26;;;;;;;1.88;0.40;;;;;;;;;;5382673;26;20016;-84
2024/04/23 01:50:56;;;;;;;0.60;0.28;;;;;;;;;;5382230;26;20041;-83
2024/04/23 01:53:26;;;;;;;0.70;0.17;;;;;;;;;;5382383;26;20016;-82
2024/04/23 01:55:56;;;;;;;0.73;0.30;;;;;;;;;;5383884;26;20020;-83
2024/04/23 01:58:26;;;;;;;0.68;0.30;;;;;;;;;;5384145;26;20016;-83
2024/04/23 02:00:58;;;;;;;1.17;0.30;;;;;;;;;;5384010;26;20020;-83
2024/04/23 02:03:30;;;;;;;0.95;0.30;;;;;;;;;;5382400;26;20446;-83
2024/04/23 02:06:02;;;;;;;0.40;0.25;;;;;;;;;;5384081;26;20021;-84
2024/04/23 02:08:32;;;;;;;0.82;0.10;;;;;;;;;;5383646;26;20040;-82
2024/04/23 02:11:03;;;;;;;0.93;0.40;;;;;;;;;;5383932;26;20320;-83
2024/04/23 02:13:34;;;;;;;1.17;0.20;;;;;;;;;;5383703;26;20017;-84
2024/04/23 02:16:04;;;;;;;0.98;0.50;;;;;;;;;;5383057;26;20462;-85
2024/04/23 02:18:34;;;;;;;1.45;0.20;;;;;;;;;;5384086;26;20016;-83
2024/04/23 02:21:04;;;;;;;1.75;0.38;;;;;;;;;;5383945;26;20452;-83
2024/04/23 02:23:34;;;;;;;0.93;0.30;;;;;;;;;;5384193;26;20020;-83
2024/04/23 02:26:04;;;;;;;0.73;0.63;;;;;;;;;;5380583;26;20032;-83
2024/04/23 02:28:36;;;;;;;3.22;0.30;;;;;;;;;;5382828;26;20483;-84
2024/04/23 02:31:06;;;;;;;1.33;0.43;;;;;;;;;;5383544;26;20017;-82
2024/04/23 02:33:36;;;;;;;2.95;0.47;;;;;;;;;;5383668;26;20024;-84
2024/04/23 02:36:07;;;;;;;0.95;0.15;;;;;;;;;;5383963;26;20445;-82
2024/04/23 02:38:37;;;;;;;0.45;0.35;;;;;;;;;;5383905;26;20024;-82
2024/04/23 02:41:07;;;;;;;1.52;0.30;;;;;;;;;;5383800;26;20020;-83
2024/04/23 02:43:37;;;;;;;1.35;0.32;;;;;;;;;;5383669;26;20017;-83
2024/04/23 02:46:07;;;;;;;1.27;0.45;;;;;;;;;;5383574;26;20020;-82
2024/04/23 02:48:37;;;;;;;0.65;0.40;;;;;;;;;;5383589;26;20032;-83
2024/04/23 02:51:07;;;;;;;1.85;0.32;;;;;;;;;;5383233;26;20427;-83
2024/04/23 02:53:37;;;;;;;0.90;0.60;;;;;;;;;;5383862;26;20474;-82
2024/04/23 02:56:07;;;;;;;1.55;0.50;;;;;;;;;;5381534;26;20020;-82
2024/04/23 02:58:37;;;;;;;0.90;0.50;;;;;;;;;;5381576;26;20028;-82
2024/04/23 03:01:07;;;;;;;0.47;0.32;;;;;;;;;;5383142;26;20029;-82
2024/04/23 03:03:37;;;;;;;2.47;0.70;;;;;;;;;;5383206;26;20025;-82
2024/04/23 03:06:07;;;;;;;1.67;0.50;;;;;;;;;;5383111;26;20029;-83
2024/04/23 03:08:37;;;;;;;0.60;0.30;;;;;;;;;;5381458;26;20016;-81
2024/04/23 03:11:10;;;;;;;0.90;0.30;;;;;;;;;;5381269;26;20024;-81
2024/04/23 03:13:40;;;;;;;0.82;0.40;;;;;;;;;;5382998;26;20016;-82
2024/04/23 03:16:11;;;;;;;0.85;0.40;;;;;;;;;;5381802;26;20471;-81
2024/04/23 03:18:42;;;;;;;1.92;0.50;;;;;;;;;;5383579;26;20029;-81
2024/04/23 03:21:12;;;;;;;3.67;0.50;;;;;;;;;;5383473;26;20017;-81
2024/04/23 03:23:42;;;;;;;1.27;0.65;;;;;;;;;;5382958;26;20020;-81
2024/04/23 03:26:12;;;;;;;1.50;0.50;;;;;;;;;;5383211;26;20016;-82
2024/04/23 03:28:41;;;;;;;0.68;0.30;;;;;;;;;;5383773;26;20023;-82
2024/04/23 03:31:12;;;;;;;2.80;0.90;;;;;;;;;;5383036;26;20016;-82
2024/04/23 03:33:42;;;;;;;3.00;0.40;;;;;;;;;;5383120;26;20016;-81
2024/04/23 03:36:12;;;;;;;1.60;0.50;;;;;;;;;;5382659;26;20021;-81
2024/04/23 03:38:45;;;;;;;1.40;0.52;;;;;;;;;;5383355;26;20486;-81
2024/04/23 03:41:15;;;;;;;5.13;0.63;;;;;;;;;;5382835;26;20029;-81
2024/04/23 03:43:45;;;;;;;0.95;0.45;;;;;;;;;;5383227;26;20016;-81
2024/04/23 03:46:16;;;;;;;3.40;0.40;;;;;;;;;;5383012;26;20020;-82
2024/04/23 03:48:46;;;;;;;2.88;0.52;;;;;;;;;;5382863;26;20025;-82
2024/04/23 03:51:15;;;;;;;2.72;0.68;;;;;;;;;;5381297;26;20016;-83
2024/04/23 03:53:45;;;;;;;2.75;0.60;;;;;;;;;;5382693;26;20017;-82
2024/04/23 03:56:15;;;;;;;1.95;0.60;;;;;;;;;;5382795;26;20020;-82
2024/04/23 03:58:45;;;;;;;0.90;0.43;;;;;;;;;;5382868;26;20329;-83
2024/04/23 04:01:15;;;;;;;0.73;0.40;;;;;;;;;;5382519;26;20458;-82
2024/04/23 04:06:34;;;;;;;0.80;0.30;;;;;;;;;;5382108;26;20028;-82
2024/04/23 04:09:04;;;;;;;3.38;0.70;;;;;;;;;;5382817;26;20025;-83
2024/04/23 04:11:37;;;;;;;2.63;0.90;;;;;;;;;;5382550;26;20341;-83
2024/04/23 04:14:07;;;;;;;1.05;0.50;;;;;;;;;;5382369;26;20024;-83
2024/04/23 04:16:37;;;;;;;2.10;0.60;;;;;;;;;;5382451;26;20024;-82
2024/04/23 04:19:07;;;;;;;1.70;0.50;;;;;;;;;;5380556;26;20029;-82
2024/04/23 04:21:37;;;;;;;3.53;2.33;;;;;;;;;;5382653;26;20016;-82
2024/04/23 04:24:07;;;;;;;3.72;0.63;;;;;;;;;;5380719;26;20024;-82
2024/04/23 04:26:37;;;;;;;1.95;0.50;;;;;;;;;;5382151;26;20466;-82
2024/04/23 04:29:07;;;;;;;6.05;0.80;;;;;;;;;;5382855;26;20024;-82
2024/04/23 04:31:37;;;;;;;2.95;0.77;;;;;;;;;;5382332;26;20024;-82
2024/04/23 04:34:07;;;;;;;3.35;1.00;;;;;;;;;;5382328;26;20385;-81
2024/04/23 04:36:37;;;;;;;4.70;0.85;;;;;;;;;;5381705;26;20343;-82
2024/04/23 04:39:07;;;;;;;3.47;1.00;;;;;;;;;;5382242;26;20020;-82
2024/04/23 04:41:38;;;;;;;4.32;0.80;;;;;;;;;;5381802;26;20029;-81
2024/04/23 04:44:08;;;;;;;6.22;1.10;;;;;;;;;;5381921;26;20016;-82
2024/04/23 04:46:38;;;;;;;2.55;0.82;;;;;;;;;;5382348;26;20029;-82
2024/04/23 04:49:08;;;;;;;6.25;0.80;;;;;;;;;;5381295;26;20029;-82
2024/04/23 04:51:38;;;;;;;6.03;0.80;;;;;;;;;;5381870;26;20033;-81
2024/04/23 04:54:08;;;;;;;3.38;0.80;;;;;;;;;;5377837;26;20374;-81
2024/04/23 04:56:38;;;;;;;2.17;0.73;;;;;;;;;;5381682;26;20016;-82
2024/04/23 04:59:08;;;;;;;2.20;0.82;;;;;;;;;;5382425;26;20024;-81
2024/04/23 05:01:38;;;;;;;2.92;0.93;;;;;;;;;;5381969;26;20016;-81
2024/04/23 05:04:09;;;;;;;2.85;1.00;;;;;;;;;;5382258;26;20028;-83
2024/04/23 05:06:40;;;;;;;3.10;1.02;;;;;;;;;;5380988;26;20024;-84
2024/04/23 05:09:10;;;;;;;2.20;0.80;;;;;;;;;;5379697;26;20020;-83
2024/04/23 05:11:42;;;;;;;5.45;1.33;;;;;;;;;;5381764;26;20462;-84
2024/04/23 05:14:15;;;;;;;5.53;1.40;;;;;;;;;;5381476;26;20020;-83
2024/04/23 05:16:45;;;;;;;3.83;1.02;;;;;;;;;;5381462;26;20016;-82
2024/04/23 05:19:15;;;;;;;4.05;1.15;;;;;;;;;;5381124;26;20020;-82
2024/04/23 05:21:45;;;;;;;4.93;1.60;;;;;;;;;;5379571;26;20053;-83
2024/04/23 05:24:15;;;;;;;5.10;1.30;;;;;;;;;;5381579;26;20359;-84
2024/04/23 05:26:45;;;;;;;5.18;1.55;;;;;;;;;;5381199;26;20024;-83
2024/04/23 05:29:15;;;;;;;3.33;1.13;;;;;;;;;;5381201;26;20016;-85
2024/04/23 05:34:33;;;;;;;1.35;0.70;;;;;;;;;;5381725;26;20024;-84
2024/04/23 05:37:03;;;;;;;1.60;0.73;;;;;;;;;;5382815;26;20143;-84
2024/04/23 05:39:33;;;;;;;1.95;0.60;;;;;;;;;;5382904;26;20434;-84
2024/04/23 05:42:03;;;;;;;2.30;0.80;;;;;;;;;;5381802;26;20364;-85
2024/04/23 05:44:33;;;;;;;3.17;1.00;;;;;;;;;;5381187;26;20025;-83
2024/04/23 05:47:03;;;;;;;3.70;1.33;;;;;;;;;;5381396;26;20016;-84
2024/04/23 05:50:10;;;;;;;3.47;1.05;;;;;;;;;;5381767;26;20016;-85
2024/04/23 05:53:36;;;;;;;5.03;0.82;;;;;;;;;;5380923;26;20024;-85
2024/04/23 05:56:24;;;;;;;1.30;0.50;;;;;;;;;;5380833;26;20099;-84
2024/04/23 05:58:54;;;;;;;5.88;1.15;;;;;;;;;;5380564;26;20466;-85
2024/04/23 06:01:25;;;;;;;5.35;1.05;;;;;;;;;;5381407;26;20020;-84
2024/04/23 06:03:55;;;;;;;1.95;0.68;;;;;;;;;;5384280;26;20021;-86
2024/04/23 06:06:25;;;;;;;3.67;0.88;;;;;;;;;;5383945;26;20024;-85
2024/04/23 06:08:55;;;;;;;1.60;0.60;;;;;;;;;;5384843;26;20017;-85
2024/04/23 06:11:25;;;;;;;4.68;0.80;;;;;;;;;;5383977;26;20020;-84
2024/04/23 06:14:08;;;;;;;2.30;1.00;;;;;;;;;;5382845;26;20040;-84
2024/04/23 06:16:39;;;;;;;5.45;0.90;;;;;;;;;;5384319;26;20021;-84
2024/04/23 06:19:09;;;;;;;3.50;1.05;;;;;;;;;;5380999;26;20388;-84
2024/04/23 06:21:39;;;;;;;4.43;1.10;;;;;;;;;;5380999;26;20021;-85
2024/04/23 06:24:09;;;;;;;3.08;1.02;;;;;;;;;;5381285;26;20144;-85
2024/04/23 06:26:41;;;;;;;9.25;1.40;;;;;;;;;;5380618;26;20033;-84
2024/04/23 06:29:12;;;;;;;2.95;1.13;;;;;;;;;;5404029;26;20061;-83
2024/04/23 06:31:42;;;;;;;5.50;1.30;;;;;;;;;;5405799;26;20000;-84
2024/04/23 06:34:11;;;;;;;4.97;1.35;;;;;;;;;;5376696;26;19992;-83
2024/04/23 06:36:42;;;;;;;3.97;1.13;;;;;;;;;;5377233;26;19992;-84
2024/04/23 06:39:13;;;;;;;3.22;1.50;;;;;;;;;;5405470;26;19996;-84
2024/04/23 06:41:43;;;;;;;4.95;1.50;;;;;;;;;;5375967;26;19988;-84
2024/04/23 06:44:13;;;;;;;5.03;1.67;;;;;;;;;;5363873;26;20419;-84
2024/04/23 06:46:43;;;;;;;4.18;1.50;;;;;;;;;;5351884;26;20016;-84
2024/04/23 06:49:12;;;;;;;3.42;1.42;;;;;;;;;;5381174;26;20120;-84
2024/04/23 06:51:42;;;;;;;4.03;1.35;;;;;;;;;;5380817;26;20455;-84
2024/04/23 06:54:13;;;;;;;6.40;1.67;;;;;;;;;;5380794;26;20405;-85
2024/04/23 06:56:43;;;;;;;5.95;2.15;;;;;;;;;;5381986;26;20024;-84
2024/04/23 06:59:14;;;;;;;4.80;1.55;;;;;;;;;;5383819;26;20347;-86
2024/04/23 07:01:44;;;;;;;3.75;1.63;;;;;;;;;;5383557;26;20025;-85
2024/04/23 07:04:15;;;;;;;4.50;1.50;;;;;;;;;;5381977;26;20028;-85
2024/04/23 07:06:45;;;;;;;3.80;1.75;;;;;;;;;;5383721;26;20028;-85
2024/04/23 07:09:16;;;;;;;3.67;1.83;;;;;;;;;;5384490;26;20020;-85
2024/04/23 07:11:46;;;;;;;3.95;1.63;;;;;;;;;;5383766;26;20020;-85
2024/04/23 07:14:16;;;;;;;4.05;1.70;;;;;;;;;;5383825;26;20017;-85
2024/04/23 07:16:46;;;;;;;5.50;1.60;;;;;;;;;;5383746;26;20016;-85
2024/04/23 07:19:16;;;;;;;7.22;1.92;;;;;;;;;;5381798;26;20380;-84
2024/04/23 07:21:47;;;;;;;5.15;1.50;;;;;;;;;;5382406;26;20466;-85
2024/04/23 07:24:17;;;;;;;4.22;1.50;;;;;;;;;;5383480;26;20029;-86
2024/04/23 07:26:51;;;;;;;4.28;1.52;;;;;;;;;;5382582;26;20020;-86
2024/04/23 07:29:22;;;;;;;6.10;1.42;;;;;;;;;;5384405;26;20016;-84
2024/04/23 07:31:52;;;;;;;4.53;1.50;;;;;;;;;;5383482;26;20025;-85
2024/04/23 07:34:23;;;;;;;5.65;1.63;;;;;;;;;;5382872;26;20016;-85
2024/04/23 07:36:53;;;;;;;5.32;1.40;;;;;;;;;;5381380;26;20392;-85
2024/04/23 07:39:23;;;;;;;8.93;1.80;;;;;;;;;;5383285;26;20028;-86
2024/04/23 07:41:53;;;;;;;5.45;1.70;;;;;;;;;;5382925;26;20358;-86
2024/04/23 07:44:23;;;;;;;4.57;1.45;;;;;;;;;;5381888;26;20016;-85
2024/04/23 07:46:53;;;;;;;4.90;1.58;;;;;;;;;;5384061;26;20020;-85
2024/04/23 07:49:23;;;;;;;4.55;1.30;;;;;;;;;;5382935;26;20376;-85
2024/04/23 07:51:53;;;;;;;4.53;1.35;;;;;;;;;;5381139;26;20012;-86
2024/04/23 07:54:23;;;;;;;2.75;1.63;;;;;;;;;;5381387;26;20466;-88
2024/04/23 07:56:53;;;;;;;6.47;1.55;;;;;;;;;;5382200;26;20032;-85
2024/04/23 07:59:23;;;;;;;3.63;1.52;;;;;;;;;;5383884;26;20020;-85
2024/04/23 08:01:53;;;;;;;3.63;1.63;;;;;;;;;;5381982;26;20475;-85
2024/04/23 08:04:23;;;;;;;5.43;1.80;;;;;;;;;;5382919;26;20025;-86
2024/04/23 08:06:53;;;;;;;4.35;1.67;;;;;;;;;;5383310;26;20467;-87
2024/04/23 08:09:23;;;;;;;2.97;1.40;;;;;;;;;;5386095;26;20008;-85
2024/04/23 08:11:53;;;;;;;2.85;1.48;;;;;;;;;;5383398;26;20020;-89
2024/04/23 08:14:23;;;;;;;4.65;1.60;;;;;;;;;;5383219;26;20016;-85
2024/04/23 08:16:53;;;;;;;3.67;1.70;;;;;;;;;;5383483;26;20020;-85
2024/04/23 08:19:23;;;;;;;5.18;1.60;;;;;;;;;;5352652;26;20020;-86
2024/04/23 08:21:53;;;;;;;2.83;1.30;;;;;;;;;;5381061;26;20024;-85
2024/04/23 08:24:23;;;;;;;3.08;1.30;;;;;;;;;;5381556;26;20016;-85
2024/04/23 08:26:53;;;;;;;2.30;1.27;;;;;;;;;;5381111;26;20021;-85
2024/04/23 08:29:23;;;;;;;10.48;1.58;;;;;;;;;;5382682;26;20028;-85
2024/04/23 08:31:53;;;;;;;3.35;1.65;;;;;;;;;;5382126;26;20016;-86
2024/04/23 08:34:23;;;;;;;2.88;1.50;;;;;;;;;;5382365;26;20016;-86
2024/04/23 08:36:54;;;;;;;4.93;1.83;;;;;;;;;;5382397;26;20016;-84
2024/04/23 08:39:24;;;;;;;3.45;1.42;;;;;;;;;;5382595;26;20021;-84
2024/04/23 08:41:56;;;;;;;3.22;1.60;;;;;;;;;;5379687;26;20024;-85
2024/04/23 08:44:29;;;;;;;2.80;1.38;;;;;;;;;;5382435;26;20020;-84
2024/04/23 08:46:59;;;;;;;4.80;1.67;;;;;;;;;;5382596;26;20332;-85
2024/04/23 08:49:32;;;;;;;4.85;1.75;;;;;;;;;;5380472;26;20029;-85
2024/04/23 08:52:07;;;;;;;7.97;2.00;;;;;;;;;;5382534;26;20459;-85
2024/04/23 08:54:39;;;;;;;2.88;1.65;;;;;;;;;;5382433;26;20375;-84
2024/04/23 08:57:16;;;;;;;4.03;1.30;;;;;;;;;;5382038;26;20071;-84
2024/04/23 08:59:48;;;;;;;2.88;1.45;;;;;;;;;;5380855;26;20028;-83
2024/04/23 09:02:28;;;;;;;4.75;1.80;;;;;;;;;;5383457;26;20021;-85
2024/04/23 09:05:00;;;;;;;3.67;2.03;;;;;;;;;;5382334;26;20020;-85
2024/04/23 09:07:33;;;;;;;3.92;1.88;;;;;;;;;;5381931;26;20021;-84
2024/04/23 09:10:06;;;;;;;3.08;1.52;;;;;;;;;;5382163;26;20454;-85
2024/04/23 09:12:36;;;;;;;3.42;1.63;;;;;;;;;;5381220;26;20024;-87
2024/04/23 09:15:06;;;;;;;5.68;1.70;;;;;;;;;;5381581;26;20024;-85
2024/04/23 09:17:36;;;;;;;3.60;1.70;;;;;;;;;;5382076;26;20020;-85
2024/04/23 09:20:07;;;;;;;8.02;1.95;;;;;;;;;;5382738;26;20016;-84
2024/04/23 09:22:39;;;;;;;3.60;1.52;;;;;;;;;;5382274;26;20368;-85
2024/04/23 09:25:09;;;;;;;5.63;2.10;;;;;;;;;;5381713;26;20033;-85
2024/04/23 09:27:39;;;;;;;4.28;2.03;;;;;;;;;;5392581;26;20041;-85
2024/04/23 09:30:10;;;;;;;5.25;1.65;;;;;;;;;;5374445;26;20040;-85
2024/04/23 09:32:40;;;;;;;3.45;1.90;;;;;;;;;;5408066;26;20031;-86
2024/04/23 09:35:18;;;;;;;3.80;2.25;;;;;;;;;;5420057;26;20023;-84
2024/04/23 09:37:51;;;;;;;5.00;1.60;;;;;;;;;;5421634;26;20140;-84
2024/04/23 09:40:23;;;;;;;3.15;1.60;;;;;;;;;;5422495;26;20016;-85
2024/04/23 09:42:53;;;;;;;;;;;;;;;;;;5405584;26;20473;-85
2024/04/23 09:45:27;;;;;;;7.05;1.92;;;;;;;;;;5421448;26;19948;-84
2024/04/23 09:47:57;;;;;;;5.32;2.00;;;;;;;;;;5422408;26;20039;-84
2024/04/23 09:50:30;;;;;;;3.20;1.70;;;;;;;;;;5420382;26;20027;-84
2024/04/23 09:53:04;;;;;;;3.33;1.60;;;;;;;;;;5386019;26;20020;-84
2024/04/23 09:55:36;;;;;;;2.72;1.58;;;;;;;;;;5385280;26;20016;-84
2024/04/23 09:58:06;;;;;;;5.18;1.65;;;;;;;;;;5384519;26;20041;-84
2024/04/23 10:00:36;;;;;;;8.25;3.35;;;;;;;;;;5384266;26;20029;-84
2024/04/23 10:03:14;;;;;;;4.22;1.92;;;;;;;;;;5386343;26;20351;-84
2024/04/23 10:05:49;;;;;;;3.33;1.75;;;;;;;;;;5419971;26;20054;-84
2024/04/23 10:08:30;;;;;;;9.15;1.95;;;;;;;;;;5419941;26;20024;-85
2024/04/23 10:11:05;;;;;;;3.13;1.60;;;;;;;;;;5419971;26;20028;-84
2024/04/23 10:13:44;;;;;;;6.55;2.00;;;;;;;;;;5418141;26;20360;-85
2024/04/23 10:16:22;;;;;;;5.30;2.55;;;;;;;;;;5419462;26;20469;-84
2024/04/23 10:19:01;;;;;;;4.63;1.55;;;;;;;;;;5417033;26;20023;-85
2024/04/23 10:21:36;;;;;;;6.78;2.15;;;;;;;;;;5354563;26;20024;-82
2024/04/23 10:24:09;;;;;;;4.15;1.83;;;;;;;;;;5357287;26;20052;-83
2024/04/23 10:26:42;;;;;;;4.53;2.15;;;;;;;;;;5381703;26;20028;-82
2024/04/23 10:29:15;;;;;;;6.13;2.28;;;;;;;;;;5381706;26;20470;-82
2024/04/23 10:31:45;;;;;;;6.28;2.50;;;;;;;;;;5379735;26;20052;-82
2024/04/23 10:34:17;;;;;;;6.18;2.30;;;;;;;;;;5401426;26;20549;-82
2024/04/23 10:36:52;;;;;;;5.90;2.90;;;;;;;;;;5380871;26;20494;-85
2024/04/23 10:39:24;;;;;;;5.10;2.08;;;;;;;;;;5380519;26;20024;-83
2024/04/23 10:41:56;;;;;;;4.18;2.17;;;;;;;;;;5380393;26;20028;-84
2024/04/23 10:44:28;;;;;;;3.85;2.17;;;;;;;;;;5378782;26;20045;-83
2024/04/23 10:46:59;;;;;;;6.38;2.40;;;;;;;;;;5378521;26;20040;-83
2024/04/23 10:49:29;;;;;;;3.55;2.10;;;;;;;;;;5379991;26;20024;-83
2024/04/23 10:52:01;;;;;;;5.03;2.63;;;;;;;;;;5379621;26;20028;-83
2024/04/23 10:54:33;;;;;;;5.35;2.28;;;;;;;;;;5379541;26;20466;-83
2024/04/23 10:57:07;;;;;;;6.22;2.05;;;;;;;;;;5377190;26;20010;-84
2024/04/23 10:59:38;;;;;;;5.07;2.30;;;;;;;;;;5383289;26;20016;-84
2024/04/23 11:02:10;;;;;;;6.15;2.25;;;;;;;;;;5381959;26;20033;-81
2024/04/23 11:05:15;;;;;;;;;;;;;;;;;;5382485;26;20146;-83
2024/04/23 11:07:52;;;;;;;4.07;2.20;;;;;;;;;;5383753;26;19949;-83
2024/04/23 11:10:22;;;;;;;5.22;2.42;;;;;;;;;;5381827;26;20364;-83
2024/04/23 11:13:01;;;;;;;5.25;2.63;;;;;;;;;;5382599;26;20020;-83
2024/04/23 11:15:31;;;;;;;6.43;2.67;;;;;;;;;;5381605;26;20016;-83
2024/04/23 11:18:54;;;;;;;8.63;2.83;;;;;;;;;;5390948;26;20021;-84
2024/04/23 11:29:37;;;;;;;5.63;2.30;;;;;;;;;;5267989;27;20050;-82
2024/04/23 11:32:08;;;;;;;5.30;2.40;;;;;;;;;;5221404;27;20490;-84
2024/04/23 11:34:44;;;;;;;16.63;4.90;;;;;;;;;;5218973;27;20504;-82
2024/04/23 11:37:30;;;;;;;5.10;2.55;;;;;;;;;;5245291;27;20367;-82
2024/04/23 11:40:02;;;;;;;5.63;2.20;;;;;;;;;;5223025;27;20039;-83
2024/04/23 11:42:33;;;;;;;5.50;2.80;;;;;;;;;;5275125;27;20030;-82
2024/04/23 11:56:40;;;;;;;5.88;2.42;;;;;;;;;;5399288;26;20411;-77
2024/04/23 11:59:14;;;;;;;;;;;;;;;;;;5433810;26;20031;-77
2024/04/23 12:01:44;;;;;;;5.25;2.65;;;;;;;;;;5433232;26;20298;-78
2024/04/23 12:04:18;;;;;;;4.70;2.55;;;;;;;;;;5434862;26;20020;-80
2024/04/23 12:06:51;;;;;;;4.75;2.40;;;;;;;;;;5400716;26;20043;-84
2024/04/23 12:09:22;;;;;;;3.97;2.63;;;;;;;;;;5387717;26;20379;-83
2024/04/23 12:12:24;;;;;;;4.30;1.92;;;;;;;;;;5395785;26;20028;-83
2024/04/23 12:14:54;;;;;;;6.15;2.30;;;;;;;;;;5334860;26;20037;-82
2024/04/23 12:17:25;;;;;;;6.43;2.50;;;;;;;;;;5377898;26;20024;-83
2024/04/23 12:19:56;;;;;;;5.35;2.47;;;;;;;;;;5363890;26;20037;-84
2024/04/23 12:22:26;;;;;;;6.15;2.60;;;;;;;;;;5395075;26;20036;-83
2024/04/23 12:24:55;;;;;;;4.70;2.60;;;;;;;;;;5398140;26;20036;-80
2024/04/23 12:27:26;;;;;;;4.82;2.28;;;;;;;;;;5398794;26;20020;-81
2024/04/23 12:30:12;;;;;;;8.05;2.80;;;;;;;;;;5399100;26;20020;-81
2024/04/23 12:32:49;;;;;;;5.25;2.60;;;;;;;;;;5397605;26;20036;-82
2024/04/23 12:35:22;;;;;;;7.05;2.28;;;;;;;;;;5397796;26;20056;-81
2024/04/23 12:37:59;;;;;;;6.05;2.30;;;;;;;;;;5396487;26;20486;-82
2024/04/23 12:40:30;;;;;;;4.40;2.35;;;;;;;;;;5333516;26;20030;-82
2024/04/23 12:43:10;;;;;;;5.90;2.67;;;;;;;;;;5387639;26;20040;-83
2024/04/23 12:45:43;;;;;;;6.35;2.60;;;;;;;;;;5397892;26;20032;-81
2024/04/23 12:48:15;;;;;;;4.00;2.22;;;;;;;;;;5397682;26;20028;-82
2024/04/23 12:50:48;;;;;;;6.45;3.10;;;;;;;;;;5399257;26;20024;-85
2024/04/23 12:53:20;;;;;;;7.90;3.47;;;;;;;;;;5396143;26;20141;-81
2024/04/23 12:55:51;;;;;;;7.90;3.63;;;;;;;;;;5363643;26;20028;-82
2024/04/23 12:58:22;;;;;;;8.73;4.32;;;;;;;;;;5382439;26;20375;-83
2024/04/23 13:00:55;;;;;;;7.90;3.97;;;;;;;;;;5352892;26;20037;-82
2024/04/23 13:03:28;;;;;;;7.93;3.40;;;;;;;;;;5383687;26;20028;-81
2024/04/23 13:06:02;;;;;;;6.18;4.10;;;;;;;;;;5398109;26;20015;-78
2024/04/23 13:08:35;;;;;;;8.60;3.65;;;;;;;;;;5394867;26;20019;-81
2024/04/23 13:11:05;;;;;;;6.93;4.20;;;;;;;;;;5384512;26;20025;-81
2024/04/23 13:13:35;;;;;;;7.25;3.65;;;;;;;;;;5381399;26;20028;-81
2024/04/23 13:16:06;;;;;;;8.48;3.65;;;;;;;;;;5382618;26;20381;-80
2024/04/23 13:18:37;;;;;;;7.00;3.30;;;;;;;;;;5382809;26;20024;-80
2024/04/23 13:21:12;;;;;;;6.80;4.00;;;;;;;;;;5381682;26;20028;-80
2024/04/23 13:23:42;;;;;;;5.70;2.63;;;;;;;;;;5383513;26;20024;-82
2024/04/23 13:26:16;;;;;;;4.93;2.80;;;;;;;;;;5381382;26;20035;-81
2024/04/23 13:29:14;;;;;;;5.18;2.63;;;;;;;;;;5379987;26;20032;-80
2024/04/23 13:31:45;;;;;;;5.93;2.80;;;;;;;;;;5380444;26;20024;-82
2024/04/23 13:34:14;;;;;;;5.70;3.15;;;;;;;;;;5380460;26;20029;-82
2024/04/23 13:36:45;;;;;;;5.93;3.08;;;;;;;;;;5382378;26;20028;-82
2024/04/23 13:39:15;;;;;;;10.50;5.60;;;;;;;;;;5381001;26;20449;-81
2024/04/23 13:41:44;;;;;;;8.70;4.90;;;;;;;;;;5381164;26;20037;-81
2024/04/23 13:44:15;;;;;;;11.85;6.43;;;;;;;;;;5380386;26;20020;-82
2024/04/23 13:46:45;;;;;;;12.68;4.90;;;;;;;;;;5352069;26;20466;-82
2024/04/23 13:49:15;;;;;;;5.05;2.63;;;;;;;;;;5382512;26;20024;-83
2024/04/23 13:51:45;;;;;;;6.55;2.47;;;;;;;;;;5379925;26;20032;-83
2024/04/23 13:54:14;;;;;;;5.97;3.15;;;;;;;;;;5344906;26;20032;-81
2024/04/23 13:56:44;;;;;;;7.38;3.10;;;;;;;;;;5349585;26;20467;-81
2024/04/23 13:59:17;;;;;;;6.38;3.00;;;;;;;;;;5382034;26;20032;-81
2024/04/23 14:01:48;;;;;;;10.70;3.75;;;;;;;;;;5380479;26;20031;-83
2024/04/23 14:04:18;;;;;;;6.78;3.13;;;;;;;;;;5381020;26;20024;-80
2024/04/23 14:06:50;;;;;;;7.80;3.60;;;;;;;;;;5381233;26;20028;-82
2024/04/23 14:09:20;;;;;;;5.95;2.70;;;;;;;;;;5379029;26;20032;-82
2024/04/23 14:11:51;;;;;;;6.53;2.80;;;;;;;;;;5379997;26;20056;-80
2024/04/23 14:14:21;;;;;;;6.20;3.33;;;;;;;;;;5379372;26;20423;-81
2024/04/23 14:16:53;;;;;;;6.40;3.97;;;;;;;;;;5382035;26;20503;-80
2024/04/23 14:19:24;;;;;;;6.32;3.42;;;;;;;;;;5379996;26;20478;-80
2024/04/23 14:21:55;;;;;;;10.25;3.47;;;;;;;;;;5381711;26;20470;-81
2024/04/23 14:24:26;;;;;;;6.75;3.72;;;;;;;;;;5380276;26;20036;-83
2024/04/23 14:26:57;;;;;;;6.07;3.20;;;;;;;;;;5379235;26;20105;-82
2024/04/23 14:29:27;;;;;;;7.65;3.40;;;;;;;;;;5381289;26;20032;-81
2024/04/23 14:31:58;;;;;;;6.53;3.35;;;;;;;;;;5377608;26;20051;-80
2024/04/23 14:34:29;;;;;;;5.50;3.70;;;;;;;;;;5377007;26;20036;-80
2024/04/23 14:37:00;;;;;;;5.72;3.63;;;;;;;;;;5379397;26;20476;-82
2024/04/23 14:39:30;;;;;;;7.10;4.13;;;;;;;;;;5378999;26;20474;-82
2024/04/23 14:42:01;;;;;;;5.85;3.38;;;;;;;;;;5379456;26;20037;-84
2024/04/23 14:44:32;;;;;;;8.50;4.00;;;;;;;;;;5379662;26;20028;-82
2024/04/23 14:47:03;;;;;;;7.95;4.15;;;;;;;;;;5379447;26;20024;-82
2024/04/23 14:49:34;;;;;;;8.40;3.75;;;;;;;;;;5380049;26;20028;-82
2024/04/23 14:52:05;;;;;;;6.65;3.85;;;;;;;;;;5380454;26;20028;-87
2024/04/23 14:54:36;;;;;;;8.50;4.88;;;;;;;;;;5352139;26;20032;-87
2024/04/23 14:57:08;;;;;;;6.00;3.80;;;;;;;;;;5376958;26;20580;-84
2024/04/23 14:59:40;;;;;;;7.25;3.85;;;;;;;;;;5377505;26;20155;-82
2024/04/23 15:02:12;;;;;;;10.50;4.50;;;;;;;;;;5379991;26;20041;-82
2024/04/23 15:04:42;;;;;;;6.95;3.83;;;;;;;;;;5378998;26;20024;-83
2024/04/23 15:07:14;;;;;;;9.27;3.92;;;;;;;;;;5379229;26;20016;-85
2024/04/23 15:09:45;;;;;;;7.90;4.22;;;;;;;;;;5378298;26;20028;-85
2024/04/23 15:12:17;;;;;;;9.30;3.70;;;;;;;;;;5380079;26;20020;-82
2024/04/23 15:14:48;;;;;;;7.55;4.07;;;;;;;;;;5377114;26;20024;-85
2024/04/23 15:17:18;;;;;;;10.30;5.25;;;;;;;;;;5378184;26;20032;-85
2024/04/23 15:19:52;;;;;;;8.95;4.95;;;;;;;;;;5379075;26;20369;-84
2024/04/23 15:22:23;;;;;;;11.05;6.00;;;;;;;;;;5378658;26;20028;-84
2024/04/23 15:24:53;;;;;;;9.50;6.65;;;;;;;;;;5369112;26;20044;-85
2024/04/23 15:27:24;;;;;;;15.43;7.38;;;;;;;;;;5351751;26;20040;-83
2024/04/23 15:29:54;;;;;;;13.30;6.65;;;;;;;;;;5380690;26;20372;-85
2024/04/23 15:32:24;;;;;;;12.43;6.80;;;;;;;;;;5378127;26;20059;-84
2024/04/23 15:34:55;;;;;;;9.80;5.95;;;;;;;;;;5379748;26;20020;-84